createdAt,value
2023-03-16T00:00:38.197Z,18.47
2023-03-16T00:03:05.007Z,18.47
2023-03-16T00:05:32.162Z,18.49
2023-03-16T00:08:01.244Z,18.47
2023-03-16T00:10:30.092Z,18.50
2023-03-16T00:13:02.863Z,18.50
2023-03-16T00:15:31.635Z,18.51
2023-03-16T00:18:03.820Z,18.52
2023-03-16T00:20:33.749Z,18.53
2023-03-16T00:23:06.201Z,18.52
2023-03-16T00:25:35.032Z,18.51
2023-03-16T00:28:03.764Z,18.53
2023-03-16T00:30:32.744Z,18.53
2023-03-16T00:32:59.565Z,18.53
2023-03-16T00:35:34.772Z,18.53
2023-03-16T00:38:04.058Z,18.54
2023-03-16T00:40:30.822Z,18.54
2023-03-16T00:42:59.895Z,18.54
2023-03-16T00:45:26.619Z,18.55
2023-03-16T00:47:54.349Z,18.57
2023-03-16T00:50:23.139Z,18.57
2023-03-16T00:52:49.848Z,18.56
2023-03-16T00:55:19.686Z,18.54
2023-03-16T00:57:46.438Z,18.56
2023-03-16T01:00:16.813Z,18.56
2023-03-16T01:02:46.625Z,18.57
2023-03-16T01:05:16.527Z,18.56
2023-03-16T01:07:45.821Z,18.56
2023-03-16T01:10:12.829Z,18.55
2023-03-16T01:12:41.619Z,18.56
2023-03-16T01:15:12.055Z,18.57
2023-03-16T01:17:43.866Z,18.56
2023-03-16T01:20:15.104Z,18.58
2023-03-16T01:22:42.337Z,18.56
2023-03-16T01:25:13.433Z,18.56
2023-03-16T01:27:45.441Z,18.57
2023-03-16T01:30:14.722Z,18.57
2023-03-16T01:32:46.225Z,18.57
2023-03-16T01:35:13.102Z,18.56
2023-03-16T01:37:41.977Z,18.55
2023-03-16T01:40:11.985Z,18.56
2023-03-16T01:42:47.960Z,18.55
2023-03-16T01:45:53.025Z,18.56
2023-03-16T01:48:23.156Z,18.53
2023-03-16T01:50:53.791Z,18.56
2023-03-16T01:53:22.913Z,18.58
2023-03-16T01:55:49.638Z,18.56
2023-03-16T01:58:18.605Z,18.56
2023-03-16T02:00:49.958Z,18.57
2023-03-16T02:03:17.617Z,18.56
2023-03-16T02:05:52.884Z,18.55
2023-03-16T02:08:24.631Z,18.56
2023-03-16T02:10:54.735Z,18.56
2023-03-16T02:13:22.760Z,18.55
2023-03-16T02:15:51.828Z,18.55
2023-03-16T02:18:23.952Z,18.55
2023-03-16T02:21:25.608Z,18.56
2023-03-16T02:23:52.142Z,18.56
2023-03-16T02:26:24.906Z,18.56
2023-03-16T02:29:06.872Z,18.54
2023-03-16T02:31:35.803Z,18.54
2023-03-16T02:34:08.028Z,18.54
2023-03-16T02:36:37.363Z,18.55
2023-03-16T02:39:06.718Z,18.52
2023-03-16T02:41:35.695Z,18.55
2023-03-16T02:44:24.808Z,18.56
2023-03-16T02:46:52.785Z,18.54
2023-03-16T02:49:25.594Z,18.53
2023-03-16T02:51:54.924Z,18.56
2023-03-16T02:54:21.613Z,18.55
2023-03-16T02:56:51.649Z,18.55
2023-03-16T02:59:18.448Z,18.53
2023-03-16T03:01:47.294Z,18.54
2023-03-16T03:04:14.044Z,18.52
2023-03-16T03:06:41.890Z,18.54
2023-03-16T03:09:11.819Z,18.53
2023-03-16T03:11:38.556Z,18.53
2023-03-16T03:14:09.869Z,18.52
2023-03-16T03:16:39.152Z,18.54
2023-03-16T03:19:10.481Z,18.55
2023-03-16T03:21:39.353Z,18.53
2023-03-16T03:24:06.370Z,18.51
2023-03-16T03:26:35.356Z,18.52
2023-03-16T03:29:02.467Z,18.52
2023-03-16T03:31:29.186Z,18.53
2023-03-16T03:33:58.081Z,18.52
2023-03-16T03:36:26.932Z,18.52
2023-03-16T03:38:55.750Z,18.52
2023-03-16T03:41:22.565Z,18.53
2023-03-16T03:43:54.590Z,18.53
2023-03-16T03:46:23.462Z,18.53
2023-03-16T03:48:50.225Z,18.52
2023-03-16T03:51:19.047Z,18.53
2023-03-16T03:53:47.868Z,18.52
2023-03-16T03:56:19.189Z,18.53
2023-03-16T03:58:48.062Z,18.53
2023-03-16T04:01:14.665Z,18.52
2023-03-16T04:03:45.221Z,18.52
2023-03-16T04:06:14.101Z,18.52
2023-03-16T04:08:40.750Z,18.52
2023-03-16T04:11:07.532Z,18.51
2023-03-16T04:13:36.612Z,18.51
2023-03-16T04:16:03.336Z,18.51
2023-03-16T04:18:32.766Z,18.51
2023-03-16T04:20:59.456Z,18.52
2023-03-16T04:23:26.111Z,18.52
2023-03-16T04:25:52.798Z,18.51
2023-03-16T04:28:21.514Z,18.52
2023-03-16T04:30:50.661Z,18.52
2023-03-16T04:33:17.420Z,18.51
2023-03-16T04:35:48.774Z,18.51
2023-03-16T04:38:17.750Z,18.49
2023-03-16T04:40:46.777Z,18.51
2023-03-16T04:43:17.433Z,18.50
2023-03-16T04:45:49.414Z,18.52
2023-03-16T04:48:18.386Z,18.50
2023-03-16T04:50:45.170Z,18.51
2023-03-16T04:53:14.797Z,18.49
2023-03-16T04:55:42.099Z,18.50
2023-03-16T04:58:11.309Z,18.49
2023-03-16T05:00:40.138Z,18.48
2023-03-16T05:03:10.370Z,18.49
2023-03-16T05:05:39.975Z,18.49
2023-03-16T05:08:10.981Z,18.47
2023-03-16T05:10:42.932Z,18.48
2023-03-16T05:13:14.868Z,18.48
2023-03-16T05:15:43.791Z,18.48
2023-03-16T05:18:10.423Z,18.48
2023-03-16T05:20:42.176Z,18.49
2023-03-16T05:23:11.745Z,18.47
2023-03-16T05:25:40.765Z,18.47
2023-03-16T05:28:07.452Z,18.47
2023-03-16T05:30:38.742Z,18.48
2023-03-16T05:33:07.667Z,18.48
2023-03-16T05:35:37.005Z,18.46
2023-03-16T05:38:09.957Z,18.47
2023-03-16T05:40:37.318Z,18.47
2023-03-16T05:43:04.596Z,18.47
2023-03-16T05:45:31.382Z,18.47
2023-03-16T05:48:00.191Z,18.47
2023-03-16T05:50:29.507Z,18.48
2023-03-16T05:53:01.106Z,18.47
2023-03-16T05:55:29.870Z,18.47
2023-03-16T05:57:58.784Z,18.47
2023-03-16T06:00:26.102Z,18.46
2023-03-16T06:02:55.516Z,18.45
2023-03-16T06:05:24.432Z,18.43
2023-03-16T06:07:52.156Z,18.44
2023-03-16T06:10:18.958Z,18.44
2023-03-16T06:12:48.549Z,18.46
2023-03-16T06:15:17.446Z,18.47
2023-03-16T06:17:44.788Z,18.47
2023-03-16T06:20:13.111Z,18.48
2023-03-16T06:22:43.127Z,18.49
2023-03-16T06:25:11.024Z,18.51
2023-03-16T06:27:40.246Z,18.49
2023-03-16T06:30:08.765Z,18.50
2023-03-16T06:32:36.388Z,18.51
2023-03-16T06:35:03.678Z,18.52
2023-03-16T06:37:33.591Z,18.51
2023-03-16T06:40:00.429Z,18.52
2023-03-16T06:42:27.216Z,18.53
2023-03-16T06:44:53.975Z,18.52
2023-03-16T06:47:25.309Z,18.51
2023-03-16T06:49:54.372Z,18.53
2023-03-16T06:52:23.682Z,17.74
2023-03-16T06:54:53.091Z,16.93
2023-03-16T06:57:25.023Z,16.30
2023-03-16T06:59:55.352Z,15.85
2023-03-16T07:02:24.319Z,15.71
2023-03-16T07:04:53.101Z,15.04
2023-03-16T07:07:21.978Z,14.93
2023-03-16T07:09:50.859Z,14.40
2023-03-16T07:17:45.381Z,14.92
2023-03-16T07:20:14.753Z,15.14
2023-03-16T07:22:43.716Z,15.24
2023-03-16T07:25:16.180Z,15.34
2023-03-16T07:27:50.023Z,15.42
2023-03-16T07:30:19.039Z,15.50
2023-03-16T07:32:45.796Z,15.61
2023-03-16T07:35:17.179Z,15.71
2023-03-16T07:37:47.225Z,15.79
2023-03-16T07:40:14.529Z,15.90
2023-03-16T07:42:45.870Z,15.98
2023-03-16T07:45:14.786Z,16.02
2023-03-16T07:47:41.795Z,16.08
2023-03-16T07:50:11.624Z,16.14
2023-03-16T07:52:38.347Z,16.22
2023-03-16T07:55:05.490Z,16.30
2023-03-16T07:57:34.593Z,16.40
2023-03-16T08:00:09.216Z,16.51
2023-03-16T08:02:38.387Z,16.58
2023-03-16T08:05:10.095Z,16.58
2023-03-16T08:07:38.900Z,16.62
2023-03-16T08:10:08.241Z,16.67
2023-03-16T08:12:37.232Z,16.74
2023-03-16T08:15:05.959Z,16.83
2023-03-16T08:17:32.648Z,16.88
2023-03-16T08:19:59.789Z,16.78
2023-03-16T08:25:10.854Z,15.98
2023-03-16T08:27:43.014Z,15.65
2023-03-16T08:30:13.817Z,15.46
2023-03-16T08:32:41.139Z,15.70
2023-03-16T08:35:09.704Z,15.92
2023-03-16T08:37:39.505Z,16.05
2023-03-16T08:40:14.280Z,16.20
2023-03-16T08:42:43.128Z,16.35
2023-03-16T08:45:14.210Z,16.54
2023-03-16T08:47:43.561Z,16.69
2023-03-16T08:50:12.074Z,16.88
2023-03-16T08:52:41.061Z,17.01
2023-03-16T08:55:10.453Z,17.15
2023-03-16T08:57:38.797Z,17.25
2023-03-16T09:00:15.357Z,17.33
2023-03-16T09:02:48.133Z,17.50
2023-03-16T09:05:16.052Z,17.65
2023-03-16T09:07:43.706Z,17.74
2023-03-16T09:10:13.986Z,17.85
2023-03-16T09:12:41.046Z,17.98
2023-03-16T09:15:12.377Z,18.10
2023-03-16T09:17:43.780Z,18.20
2023-03-16T09:20:22.419Z,18.31
2023-03-16T09:22:52.579Z,18.42
2023-03-16T09:25:22.713Z,18.50
2023-03-16T09:27:51.569Z,18.56
2023-03-16T09:30:20.750Z,18.63
2023-03-16T09:32:49.013Z,18.70
2023-03-16T09:35:18.133Z,18.75
2023-03-16T09:38:05.216Z,18.81
2023-03-16T09:40:33.313Z,18.87
2023-03-16T09:43:26.519Z,18.94
2023-03-16T09:46:08.530Z,19.01
2023-03-16T09:48:40.872Z,19.05
2023-03-16T09:51:13.554Z,19.11
2023-03-16T09:53:40.316Z,19.15
2023-03-16T09:56:17.018Z,19.18
2023-03-16T09:58:43.939Z,19.24
2023-03-16T10:01:16.660Z,19.29
2023-03-16T10:04:08.656Z,19.31
2023-03-16T10:06:38.869Z,19.33
2023-03-16T10:09:38.428Z,19.39
2023-03-16T10:12:06.303Z,19.42
2023-03-16T10:14:49.590Z,19.43
2023-03-16T10:17:30.889Z,19.47
2023-03-16T10:19:58.139Z,19.48
2023-03-16T10:22:27.170Z,19.52
2023-03-16T10:24:59.766Z,19.55
2023-03-16T10:27:31.598Z,19.59
2023-03-16T10:29:58.476Z,19.65
2023-03-16T10:32:29.559Z,19.68
2023-03-16T10:35:00.802Z,19.69
2023-03-16T10:37:29.618Z,19.70
2023-03-16T10:40:01.696Z,19.60
2023-03-16T10:42:30.766Z,19.54
2023-03-16T10:45:02.658Z,19.64
2023-03-16T10:47:31.694Z,19.68
2023-03-16T10:50:14.694Z,19.71
2023-03-16T10:52:47.346Z,19.73
2023-03-16T10:55:21.477Z,19.76
2023-03-16T10:57:50.040Z,19.77
2023-03-16T11:00:20.961Z,19.81
2023-03-16T11:02:54.384Z,19.79
2023-03-16T11:05:29.668Z,19.80
2023-03-16T11:08:02.661Z,19.81
2023-03-16T11:10:36.212Z,19.83
2023-03-16T11:13:17.731Z,19.85
2023-03-16T11:16:01.685Z,19.82
2023-03-16T11:18:32.568Z,19.83
2023-03-16T11:21:03.298Z,19.82
2023-03-16T11:23:32.920Z,19.81
2023-03-16T11:26:02.063Z,19.85
2023-03-16T11:28:38.933Z,19.88
2023-03-16T11:31:11.941Z,19.88
2023-03-16T11:33:40.874Z,19.84
2023-03-16T11:36:29.988Z,19.85
2023-03-16T11:39:04.742Z,19.85
2023-03-16T11:41:43.595Z,19.84
2023-03-16T11:44:37.792Z,19.85
2023-03-16T11:47:16.537Z,19.84
2023-03-16T11:50:03.789Z,19.83
2023-03-16T11:52:52.113Z,19.83
2023-03-16T11:55:30.985Z,19.82
2023-03-16T11:58:07.288Z,19.82
2023-03-16T12:00:59.090Z,19.82
2023-03-16T12:03:31.990Z,19.81
2023-03-16T12:06:17.022Z,19.81
2023-03-16T12:08:53.735Z,19.82
2023-03-16T12:11:31.170Z,19.81
2023-03-16T12:14:19.191Z,19.79
2023-03-16T12:17:02.743Z,19.81
2023-03-16T12:19:30.625Z,19.82
2023-03-16T12:22:33.830Z,19.79
2023-03-16T12:25:00.656Z,19.79
2023-03-16T12:27:33.491Z,19.79
2023-03-16T12:30:28.263Z,19.81
2023-03-16T12:33:34.301Z,19.78
2023-03-16T12:36:17.004Z,19.73
2023-03-16T12:38:53.384Z,19.72
2023-03-16T12:42:08.546Z,19.72
2023-03-16T12:44:57.434Z,19.69
2023-03-16T12:47:32.180Z,19.67
2023-03-16T12:50:12.748Z,19.67
2023-03-16T12:52:49.936Z,19.67
2023-03-16T12:55:34.916Z,19.66
2023-03-16T12:58:02.988Z,19.66
2023-03-16T13:00:57.043Z,19.64
2023-03-16T13:03:25.326Z,19.66
2023-03-16T13:06:03.426Z,19.66
2023-03-16T13:08:41.417Z,19.65
2023-03-16T13:11:10.018Z,19.66
2023-03-16T13:13:52.255Z,19.66
2023-03-16T13:16:38.547Z,19.67
2023-03-16T13:19:17.871Z,19.67
2023-03-16T13:21:46.670Z,19.66
2023-03-16T13:24:30.394Z,19.66
2023-03-16T13:27:02.794Z,19.67
2023-03-16T13:29:31.193Z,19.66
2023-03-16T13:32:08.758Z,19.68
2023-03-16T13:34:44.885Z,19.68
2023-03-16T13:37:14.598Z,19.68
2023-03-16T13:39:41.728Z,19.68
2023-03-16T13:42:08.394Z,19.68
2023-03-16T13:44:35.030Z,19.69
2023-03-16T13:47:05.615Z,19.70
2023-03-16T13:49:34.510Z,19.72
2023-03-16T13:52:06.063Z,19.73
2023-03-16T13:54:32.830Z,19.72
2023-03-16T13:57:03.062Z,19.71
2023-03-16T13:59:35.009Z,19.71
2023-03-16T14:02:04.069Z,19.73
2023-03-16T14:04:36.081Z,19.70
2023-03-16T14:07:03.753Z,19.71
2023-03-16T14:09:34.619Z,19.71
2023-03-16T14:12:01.647Z,19.72
2023-03-16T14:14:32.408Z,19.71
2023-03-16T14:17:10.651Z,19.71
2023-03-16T14:19:49.984Z,19.70
2023-03-16T14:22:23.480Z,19.69
2023-03-16T14:24:59.379Z,19.70
2023-03-16T14:27:29.869Z,19.69
2023-03-16T14:30:01.676Z,19.70
2023-03-16T14:32:30.651Z,19.70
2023-03-16T14:35:20.586Z,19.66
2023-03-16T14:37:49.437Z,19.69
2023-03-16T14:40:30.860Z,19.69
2023-03-16T14:42:59.422Z,19.69
2023-03-16T14:45:38.455Z,19.69
2023-03-16T14:48:16.992Z,19.69
2023-03-16T14:50:43.776Z,19.68
2023-03-16T14:53:10.582Z,19.67
2023-03-16T14:55:39.640Z,19.68
2023-03-16T14:58:10.003Z,19.74
2023-03-16T15:00:50.230Z,19.84
2023-03-16T15:03:20.677Z,19.78
2023-03-16T15:05:48.664Z,19.81
2023-03-16T15:08:23.722Z,19.79
2023-03-16T15:10:52.541Z,19.82
2023-03-16T15:13:40.760Z,19.80
2023-03-16T15:16:11.481Z,19.81
2023-03-16T15:18:40.670Z,19.82
2023-03-16T15:21:26.287Z,19.82
2023-03-16T15:23:53.138Z,19.81
2023-03-16T15:26:24.907Z,19.81
2023-03-16T15:28:52.035Z,19.81
2023-03-16T15:31:21.591Z,19.80
2023-03-16T15:33:48.369Z,19.80
2023-03-16T15:36:18.909Z,19.81
2023-03-16T15:38:49.859Z,19.79
2023-03-16T15:41:16.519Z,19.80
2023-03-16T15:43:45.533Z,19.76
2023-03-16T15:46:18.063Z,19.78
2023-03-16T15:48:47.812Z,19.80
2023-03-16T15:51:27.568Z,19.80
2023-03-16T15:53:57.013Z,19.81
2023-03-16T15:56:30.264Z,19.80
2023-03-16T15:59:04.255Z,19.81
2023-03-16T16:01:37.757Z,19.81
2023-03-16T16:04:05.432Z,19.80
2023-03-16T16:06:32.531Z,19.81
2023-03-16T16:09:01.690Z,19.65
2023-03-16T16:11:28.358Z,19.60
2023-03-16T16:13:56.002Z,19.57
2023-03-16T16:16:25.233Z,19.66
2023-03-16T16:18:51.963Z,19.63
2023-03-16T16:21:23.159Z,19.66
2023-03-16T16:23:53.368Z,19.65
2023-03-16T16:26:50.882Z,19.64
2023-03-16T16:29:30.249Z,19.63
2023-03-16T16:31:59.143Z,19.62
2023-03-16T16:34:31.181Z,19.62
2023-03-16T16:36:57.912Z,19.61
2023-03-16T16:39:24.887Z,19.59
2023-03-16T16:41:55.030Z,19.61
2023-03-16T16:44:23.801Z,19.60
2023-03-16T16:46:50.884Z,19.58
2023-03-16T16:49:31.291Z,19.58
2023-03-16T16:51:58.424Z,19.57
2023-03-16T16:54:27.474Z,19.57
2023-03-16T16:56:57.661Z,19.57
2023-03-16T16:59:32.472Z,19.59
2023-03-16T17:02:03.966Z,19.57
2023-03-16T17:04:30.907Z,19.55
2023-03-16T17:07:02.080Z,19.54
2023-03-16T17:09:31.298Z,19.55
2023-03-16T17:11:59.172Z,19.58
2023-03-16T17:14:28.471Z,19.57
2023-03-16T17:16:58.389Z,19.56
2023-03-16T17:19:29.196Z,19.56
2023-03-16T17:21:57.480Z,19.57
2023-03-16T17:24:24.668Z,19.56
2023-03-16T17:26:56.049Z,19.55
2023-03-16T17:29:36.616Z,19.53
2023-03-16T17:32:09.398Z,19.52
2023-03-16T17:34:38.422Z,19.51
2023-03-16T17:37:09.932Z,19.52
2023-03-16T17:39:37.100Z,19.14
2023-03-16T17:42:18.479Z,19.25
2023-03-16T17:44:52.150Z,19.23
2023-03-16T17:47:25.291Z,19.24
2023-03-16T17:49:53.816Z,19.28
2023-03-16T17:52:25.801Z,19.31
2023-03-16T17:54:53.249Z,19.30
2023-03-16T17:57:32.726Z,19.28
2023-03-16T18:00:02.269Z,19.30
2023-03-16T18:02:51.436Z,19.26
2023-03-16T18:05:32.659Z,19.31
2023-03-16T18:08:16.802Z,19.33
2023-03-16T18:10:46.743Z,19.36
2023-03-16T18:13:17.790Z,19.38
2023-03-16T18:15:45.142Z,19.42
2023-03-16T18:18:18.060Z,19.45
2023-03-16T18:20:46.904Z,19.39
2023-03-16T18:23:24.201Z,19.37
2023-03-16T18:25:52.652Z,19.36
2023-03-16T18:28:22.021Z,19.46
2023-03-16T18:30:52.483Z,19.46
2023-03-16T18:33:25.684Z,19.48
2023-03-16T18:35:53.823Z,19.55
2023-03-16T18:38:26.791Z,19.54
2023-03-16T18:40:53.399Z,19.52
2023-03-16T18:43:20.186Z,19.52
2023-03-16T18:45:46.960Z,19.52
2023-03-16T18:48:23.424Z,19.51
2023-03-16T18:50:50.123Z,19.51
2023-03-16T18:53:16.970Z,19.51
2023-03-16T18:55:46.402Z,19.50
2023-03-16T18:58:17.912Z,19.55
2023-03-16T19:00:46.313Z,19.56
2023-03-16T19:03:23.579Z,19.55
2023-03-16T19:05:50.337Z,19.55
2023-03-16T19:08:22.708Z,19.54
2023-03-16T19:10:56.472Z,19.53
2023-03-16T19:13:24.248Z,19.54
2023-03-16T19:15:54.286Z,19.53
2023-03-16T19:18:22.617Z,19.52
2023-03-16T19:20:50.320Z,19.53
2023-03-16T19:23:21.802Z,19.51
2023-03-16T19:25:56.083Z,19.51
2023-03-16T19:28:36.786Z,19.50
2023-03-16T19:31:15.530Z,19.49
2023-03-16T19:33:42.369Z,19.49
2023-03-16T19:36:30.347Z,19.48
2023-03-16T19:38:57.749Z,19.46
2023-03-16T19:41:31.417Z,19.46
2023-03-16T19:44:01.063Z,19.45
2023-03-16T19:46:28.188Z,19.42
2023-03-16T19:48:57.248Z,19.42
2023-03-16T19:51:25.998Z,19.42
2023-03-16T19:53:55.080Z,19.41
2023-03-16T19:56:21.902Z,19.39
2023-03-16T19:58:50.724Z,19.40
2023-03-16T20:01:19.425Z,19.38
2023-03-16T20:03:48.944Z,19.38
2023-03-16T20:06:19.309Z,19.34
2023-03-16T20:08:48.451Z,19.33
2023-03-16T20:11:19.588Z,19.33
2023-03-16T20:13:46.863Z,19.31
2023-03-16T20:16:22.056Z,19.30
2023-03-16T20:18:52.109Z,19.31
2023-03-16T20:21:18.811Z,19.29
2023-03-16T20:23:45.659Z,19.29
2023-03-16T20:26:26.856Z,19.27
2023-03-16T20:28:53.750Z,19.26
2023-03-16T20:31:25.113Z,19.27
2023-03-16T20:33:54.702Z,19.24
2023-03-16T20:36:23.997Z,19.24
2023-03-16T20:38:52.968Z,19.23
2023-03-16T20:41:24.489Z,19.22
2023-03-16T20:43:51.724Z,19.20
2023-03-16T20:46:26.204Z,19.19
2023-03-16T20:48:53.494Z,19.19
2023-03-16T20:51:20.204Z,19.16
2023-03-16T20:53:47.458Z,19.14
2023-03-16T20:56:15.350Z,19.13
2023-03-16T20:58:44.366Z,19.14
2023-03-16T21:01:17.828Z,19.13
2023-03-16T21:03:54.333Z,19.11
2023-03-16T21:06:24.358Z,19.10
2023-03-16T21:08:54.511Z,19.10
2023-03-16T21:11:37.901Z,19.07
2023-03-16T21:14:06.462Z,19.07
2023-03-16T21:16:33.455Z,19.06
2023-03-16T21:19:00.122Z,19.05
2023-03-16T21:21:26.938Z,19.04
2023-03-16T21:23:55.972Z,19.03
2023-03-16T21:26:26.384Z,19.02
2023-03-16T21:28:57.942Z,19.00
2023-03-16T21:31:24.807Z,19.00
2023-03-16T21:33:54.465Z,19.00
2023-03-16T21:36:22.600Z,18.99
2023-03-16T21:38:49.987Z,18.97
2023-03-16T21:41:21.431Z,18.98
2023-03-16T21:43:49.923Z,18.98
2023-03-16T21:46:18.440Z,18.97
2023-03-16T21:48:48.956Z,18.96
2023-03-16T21:51:20.201Z,18.95
2023-03-16T21:53:49.678Z,18.95
2023-03-16T21:56:22.550Z,18.94
2023-03-16T21:58:51.975Z,18.92
2023-03-16T22:01:25.856Z,18.90
2023-03-16T22:03:58.363Z,18.89
2023-03-16T22:06:31.559Z,18.90
2023-03-16T22:08:58.616Z,18.90
2023-03-16T22:11:29.977Z,18.90
2023-03-16T22:13:57.811Z,18.90
2023-03-16T22:16:30.030Z,18.56
2023-03-16T22:19:00.447Z,17.26
2023-03-16T22:21:42.288Z,16.44
2023-03-16T22:24:18.840Z,15.86
2023-03-16T22:26:49.284Z,16.31
2023-03-16T22:29:28.219Z,16.78
2023-03-16T22:32:05.006Z,16.89
2023-03-16T22:34:49.726Z,16.94
2023-03-16T22:37:23.189Z,16.98
2023-03-16T22:39:54.591Z,17.04
2023-03-16T22:42:38.063Z,17.10
2023-03-16T22:45:21.436Z,17.16
2023-03-16T22:47:50.954Z,17.23
2023-03-16T22:50:22.202Z,17.30
2023-03-16T22:52:49.468Z,17.34
2023-03-16T22:55:20.470Z,17.39
2023-03-16T22:57:47.426Z,17.43
2023-03-16T23:00:14.515Z,17.50
2023-03-16T23:02:41.357Z,17.55
2023-03-16T23:05:25.652Z,17.60
2023-03-16T23:07:54.658Z,17.64
2023-03-16T23:10:23.334Z,17.68
2023-03-16T23:12:53.273Z,17.72
2023-03-16T23:15:25.567Z,17.76
2023-03-16T23:17:54.609Z,17.78
2023-03-16T23:20:28.781Z,17.83
2023-03-16T23:22:55.669Z,17.86
2023-03-16T23:25:25.105Z,17.90
2023-03-16T23:27:54.567Z,17.91
2023-03-16T23:30:27.459Z,17.96
2023-03-16T23:32:54.532Z,17.97
2023-03-16T23:35:24.318Z,18.00
2023-03-16T23:37:53.101Z,18.03
2023-03-16T23:40:22.108Z,18.04
2023-03-16T23:42:53.068Z,18.06
2023-03-16T23:45:42.722Z,18.08
2023-03-16T23:48:13.777Z,18.10
2023-03-16T23:50:40.991Z,18.12
2023-03-16T23:53:15.079Z,18.13
2023-03-16T23:55:44.238Z,18.16
2023-03-16T23:58:13.173Z,18.16
